Terminal Aerodrome Forecast
Issued by NWS

Home | Current Version | Previous Version | Text Only | Print | Product List | Glossary On
Versions: 1 2 3 4 5 6 7 8 9 10 11 12 13 14 15 16 17 18 19 20 21 22 23 24 25 26 27 28 29
000
FTUS45 KCYS 201000 AAA
TAFRWL
TAF AMD
KRWL 201003Z 2010/2106 21009KT P6SM VCSH SCT025 OVC035
      TEMPO 2010/2013 -SHRA BKN025
     FM201500 24015G20KT P6SM SCT050
     FM210200 24008KT P6SM VCSH BKN050=

USA.gov is the U.S. government's official web portal to all federal, state and local government web resources and services.